X  Fermer Données météorologiques d'aviation de Metar     EDDK Cologne Bonn Airport
Température
9°C Température
4°C Point de rosée
71% Humidité



Vent
10 KM/H
6 MPH
3 M/S
5 KTS



200°
SSO
Conditions actuelles

Plutôt nuageux Plutôt nuageux
Pression 1024.04 (hPa) - 30.24 (inHg)
Visibilité 6 (mile) - 9.7 (km)
Aéroport
Code de l'aéroport EDDK

Emplacement: Cologne Bonn Airport
Distance: 56 (km)

Metar:
EDDK 210120Z AUTO 20005KT 9999 BKN022 OVC031 09/04 Q1024 NOSIG

Temps: 2024-02-21 02:20 CET